createdAt,value
2023-11-23T00:02:57.948Z,1.43
2023-11-23T00:06:00.627Z,1.14
2023-11-23T00:09:04.004Z,1.24
2023-11-23T00:12:07.230Z,1.15
2023-11-23T00:15:11.016Z,1.16
2023-11-23T00:19:02.053Z,1.11
2023-11-23T00:22:05.086Z,1.15
2023-11-23T00:25:13.599Z,1.16
2023-11-23T00:28:17.364Z,1.13
2023-11-23T00:31:19.937Z,1.18
2023-11-23T00:34:23.856Z,1.25
2023-11-23T00:37:30.192Z,1.14
2023-11-23T00:40:32.856Z,1.01
2023-11-23T00:43:38.178Z,1.14
2023-11-23T00:46:40.779Z,1.12
2023-11-23T00:49:43.123Z,1.04
2023-11-23T00:52:45.554Z,1.14
2023-11-23T00:55:48.358Z,1.15
2023-11-23T00:58:53.383Z,0.83
2023-11-23T01:01:56.234Z,0.91
2023-11-23T01:04:59.220Z,1.07
2023-11-23T01:08:02.092Z,1.09
2023-11-23T01:11:04.912Z,0.95
2023-11-23T01:14:09.655Z,1.10
2023-11-23T01:17:12.202Z,1.10
2023-11-23T01:20:15.473Z,1.10
2023-11-23T01:23:18.573Z,1.08
2023-11-23T01:26:21.451Z,1.04
2023-11-23T01:29:25.352Z,1.03
2023-11-23T01:32:31.383Z,1.01
2023-11-23T01:35:34.157Z,1.11
2023-11-23T01:38:37.645Z,1.21
2023-11-23T01:41:40.496Z,1.28
2023-11-23T01:44:43.450Z,1.07
2023-11-23T01:47:48.227Z,1.11
2023-11-23T01:50:51.912Z,1.29
2023-11-23T01:53:55.688Z,1.18
2023-11-23T01:57:00.322Z,1.00
2023-11-23T02:00:04.168Z,0.94
2023-11-23T02:03:09.979Z,0.91
2023-11-23T02:06:14.361Z,0.98
2023-11-23T02:09:18.579Z,0.96
2023-11-23T02:12:23.446Z,1.01
2023-11-23T02:15:28.398Z,1.04
2023-11-23T02:18:42.707Z,1.14
2023-11-23T02:21:48.018Z,1.24
2023-11-23T02:24:52.003Z,1.20
2023-11-23T02:27:56.000Z,1.26
2023-11-23T02:30:59.151Z,1.27
2023-11-23T02:34:05.233Z,1.24
2023-11-23T02:37:10.900Z,1.35
2023-11-23T02:40:13.534Z,1.44
2023-11-23T02:43:17.416Z,1.47
2023-11-23T02:46:23.203Z,1.46
2023-11-23T02:49:26.389Z,1.40
2023-11-23T02:52:29.417Z,1.59
2023-11-23T02:55:32.492Z,1.61
2023-11-23T02:58:35.408Z,1.58
2023-11-23T03:01:38.128Z,1.64
2023-11-23T03:04:40.622Z,1.75
2023-11-23T03:07:43.351Z,1.78
2023-11-23T03:10:46.019Z,1.78
2023-11-23T03:13:49.610Z,1.81
2023-11-23T03:16:54.025Z,1.84
2023-11-23T03:19:56.780Z,1.90
2023-11-23T03:23:00.388Z,1.85
2023-11-23T03:26:06.971Z,1.89
2023-11-23T03:29:09.882Z,1.93
2023-11-23T03:32:12.003Z,1.82
2023-11-23T03:35:14.604Z,1.83
2023-11-23T03:38:17.632Z,1.82
2023-11-23T03:41:19.891Z,1.87
2023-11-23T03:44:22.817Z,1.91
2023-11-23T03:47:25.609Z,1.95
2023-11-23T03:50:27.993Z,1.89
2023-11-23T03:53:30.715Z,1.78
2023-11-23T03:56:33.932Z,1.80
2023-11-23T03:59:36.492Z,1.70
2023-11-23T04:02:39.953Z,1.72
2023-11-23T04:05:42.910Z,1.70
2023-11-23T04:08:49.458Z,1.73
2023-11-23T04:12:12.892Z,1.45
2023-11-23T04:15:16.167Z,1.41
2023-11-23T04:18:23.645Z,1.56
2023-11-23T04:21:37.435Z,1.58
2023-11-23T04:24:45.326Z,1.36
2023-11-23T04:28:00.567Z,1.40
2023-11-23T04:31:06.814Z,1.46
2023-11-23T04:34:09.974Z,1.70
2023-11-23T04:37:16.543Z,1.66
2023-11-23T04:40:25.151Z,1.67
2023-11-23T04:43:34.985Z,1.70
2023-11-23T04:46:39.640Z,1.95
2023-11-23T04:49:43.750Z,1.97
2023-11-23T04:52:56.794Z,1.91
2023-11-23T04:56:08.271Z,2.04
2023-11-23T04:59:11.950Z,1.89
2023-11-23T05:02:18.094Z,1.85
2023-11-23T05:05:21.525Z,1.98
2023-11-23T05:08:24.096Z,2.00
2023-11-23T05:11:26.456Z,1.99
2023-11-23T05:14:29.370Z,1.94
2023-11-23T05:17:34.449Z,2.05
2023-11-23T05:20:36.634Z,2.00
2023-11-23T05:23:38.924Z,1.96
2023-11-23T05:27:08.534Z,1.93
2023-11-23T05:30:18.161Z,1.69
2023-11-23T05:33:26.093Z,1.73
2023-11-23T05:36:34.543Z,1.96
2023-11-23T05:39:38.861Z,1.86
2023-11-23T05:42:54.311Z,1.96
2023-11-23T05:46:07.554Z,1.75
2023-11-23T05:49:16.277Z,2.01
2023-11-23T05:52:19.018Z,1.95
2023-11-23T05:55:22.299Z,1.49
2023-11-23T05:58:31.128Z,1.36
2023-11-23T06:01:36.554Z,1.30
2023-11-23T06:04:49.230Z,1.02
2023-11-23T06:07:52.939Z,1.29
2023-11-23T06:10:55.813Z,1.25
2023-11-23T06:13:59.601Z,1.24
2023-11-23T06:17:17.460Z,1.06
2023-11-23T06:20:24.681Z,1.23
2023-11-23T06:23:27.427Z,1.06
2023-11-23T06:26:43.579Z,1.11
2023-11-23T06:29:50.216Z,1.11
2023-11-23T06:32:55.569Z,0.96
2023-11-23T06:36:02.174Z,0.85
2023-11-23T06:39:17.460Z,0.83
2023-11-23T06:42:49.052Z,1.06
2023-11-23T06:45:55.742Z,0.90
2023-11-23T06:49:02.662Z,1.02
2023-11-23T06:52:06.360Z,1.04
2023-11-23T06:55:24.572Z,1.19
2023-11-23T06:58:34.427Z,1.15
2023-11-23T07:02:32.496Z,1.38
2023-11-23T07:06:17.728Z,1.23
2023-11-23T07:09:26.408Z,1.41
2023-11-23T07:13:01.579Z,1.46
2023-11-23T07:20:46.807Z,1.70
2023-11-23T07:23:50.932Z,1.82
2023-11-23T07:26:57.475Z,1.66
2023-11-23T07:30:08.427Z,1.59
2023-11-23T07:33:21.194Z,1.77
2023-11-23T07:36:29.658Z,1.86
2023-11-23T07:39:43.487Z,1.83
2023-11-23T07:42:47.918Z,1.85
2023-11-23T07:49:38.096Z,1.65
2023-11-23T07:53:07.153Z,1.70
2023-11-23T07:56:12.086Z,1.95
2023-11-23T07:59:22.832Z,1.89
2023-11-23T08:02:33.982Z,1.92
2023-11-23T08:09:20.633Z,1.75
2023-11-23T08:20:18.021Z,1.79
2023-11-23T08:23:21.625Z,2.08
2023-11-23T08:26:39.239Z,2.14
2023-11-23T08:29:48.336Z,2.31
2023-11-23T08:33:17.441Z,2.46
2023-11-23T08:36:42.272Z,2.38
2023-11-23T08:39:55.679Z,2.55
2023-11-23T08:43:17.199Z,2.59
2023-11-23T08:46:24.198Z,2.46
2023-11-23T08:49:36.236Z,2.60
2023-11-23T08:53:59.791Z,2.96
2023-11-23T08:57:16.967Z,2.94
2023-11-23T09:00:46.985Z,2.94
2023-11-23T09:11:51.055Z,3.43
2023-11-23T09:15:23.284Z,3.46
2023-11-23T09:18:35.728Z,3.67
2023-11-23T09:21:41.169Z,3.77
2023-11-23T09:31:51.179Z,4.16
2023-11-23T09:39:11.123Z,4.16
2023-11-23T09:42:22.363Z,4.12
2023-11-23T09:46:59.037Z,4.16
2023-11-23T09:58:44.805Z,3.98
2023-11-23T10:02:37.571Z,3.87
2023-11-23T10:23:37.912Z,3.79
2023-11-23T10:27:04.434Z,3.63
2023-11-23T10:30:54.001Z,3.46
2023-11-23T10:37:57.696Z,3.73
2023-11-23T10:41:26.271Z,3.70
2023-11-23T10:45:36.460Z,3.80
2023-11-23T10:49:09.831Z,3.83
2023-11-23T10:52:27.762Z,3.74
2023-11-23T10:56:14.901Z,3.96
2023-11-23T11:05:57.302Z,4.25
2023-11-23T11:13:40.939Z,4.28
2023-11-23T11:17:04.643Z,4.55
2023-11-23T11:20:43.874Z,4.55
2023-11-23T11:24:27.543Z,4.67
2023-11-23T11:27:40.636Z,4.81
2023-11-23T11:30:45.506Z,5.06
2023-11-23T11:33:56.050Z,4.95
2023-11-23T11:37:20.976Z,5.01
2023-11-23T11:40:38.227Z,4.96
2023-11-23T11:43:48.916Z,5.02
2023-11-23T11:59:00.562Z,5.55
2023-11-23T12:02:09.534Z,5.57
2023-11-23T12:05:20.005Z,5.68
2023-11-23T12:08:34.897Z,5.75
2023-11-23T12:12:17.684Z,5.88
2023-11-23T12:29:13.399Z,5.84
2023-11-23T12:32:19.629Z,5.90
2023-11-23T12:35:22.207Z,6.00
2023-11-23T12:38:25.801Z,5.95
2023-11-23T12:41:42.768Z,5.97
2023-11-23T12:45:00.699Z,6.04
2023-11-23T12:48:06.688Z,6.12
2023-11-23T12:51:12.084Z,6.24
2023-11-23T12:54:22.087Z,6.19
2023-11-23T12:57:39.280Z,6.37
2023-11-23T13:00:44.578Z,6.28
2023-11-23T13:03:58.632Z,6.27
2023-11-23T13:07:01.939Z,6.33
2023-11-23T13:10:07.168Z,6.46
2023-11-23T13:13:10.189Z,6.46
2023-11-23T13:16:20.561Z,6.61
2023-11-23T13:19:37.068Z,6.56
2023-11-23T13:22:47.813Z,6.55
2023-11-23T13:25:52.441Z,6.64
2023-11-23T13:28:58.724Z,6.84
2023-11-23T13:32:04.089Z,6.80
2023-11-23T13:35:08.788Z,6.89
2023-11-23T13:38:12.202Z,6.84
2023-11-23T13:41:16.491Z,6.79
2023-11-23T13:44:20.057Z,6.65
2023-11-23T13:47:22.301Z,6.51
2023-11-23T13:50:26.458Z,6.27
2023-11-23T13:53:32.349Z,6.22
2023-11-23T13:56:34.996Z,6.16
2023-11-23T13:59:38.647Z,6.08
2023-11-23T14:02:41.422Z,5.98
2023-11-23T14:05:47.408Z,5.97
2023-11-23T14:08:50.454Z,5.97
2023-11-23T14:11:55.943Z,5.96
2023-11-23T14:15:06.085Z,5.93
2023-11-23T14:18:12.056Z,5.86
2023-11-23T14:21:15.385Z,5.85
2023-11-23T14:24:21.038Z,5.92
2023-11-23T14:27:27.979Z,5.91
2023-11-23T14:30:33.128Z,5.77
2023-11-23T14:36:37.854Z,5.67
2023-11-23T14:39:41.276Z,5.72
2023-11-23T14:42:55.910Z,5.71
2023-11-23T14:46:09.633Z,5.59
2023-11-23T14:49:12.736Z,5.58
2023-11-23T14:52:16.721Z,5.44
2023-11-23T14:55:19.319Z,5.47
2023-11-23T14:58:22.588Z,5.45
2023-11-23T15:01:28.057Z,5.46
2023-11-23T15:04:32.787Z,5.37
2023-11-23T15:07:36.314Z,5.35
2023-11-23T15:10:39.646Z,5.30
2023-11-23T15:13:42.614Z,5.31
2023-11-23T15:16:47.520Z,5.33
2023-11-23T15:19:49.836Z,5.29
2023-11-23T15:22:52.267Z,5.33
2023-11-23T15:25:55.834Z,5.28
2023-11-23T15:29:01.011Z,5.24
2023-11-23T15:32:04.524Z,5.02
2023-11-23T15:35:17.894Z,5.06
2023-11-23T15:38:23.837Z,5.08
2023-11-23T15:41:26.310Z,5.04
2023-11-23T15:44:30.004Z,4.99
2023-11-23T15:47:32.123Z,4.95
2023-11-23T15:50:34.730Z,4.96
2023-11-23T15:53:38.195Z,4.96
2023-11-23T15:56:41.132Z,4.90
2023-11-23T15:59:43.226Z,4.86
2023-11-23T16:02:46.968Z,4.86
2023-11-23T16:05:49.925Z,4.75
2023-11-23T16:08:57.032Z,4.79
2023-11-23T16:12:04.499Z,4.69
2023-11-23T16:15:08.334Z,4.68
2023-11-23T16:18:11.822Z,4.69
2023-11-23T16:21:18.335Z,4.68
2023-11-23T16:24:22.003Z,4.54
2023-11-23T16:27:25.872Z,4.64
2023-11-23T16:30:28.729Z,4.57
2023-11-23T16:33:34.151Z,4.58
2023-11-23T16:36:39.998Z,4.65
2023-11-23T16:39:43.317Z,4.53
2023-11-23T16:42:48.207Z,4.54
2023-11-23T16:45:51.769Z,4.54
2023-11-23T16:48:56.335Z,4.51
2023-11-23T16:51:59.625Z,4.50
2023-11-23T16:55:04.239Z,4.46
2023-11-23T16:58:07.246Z,4.42
2023-11-23T17:01:09.751Z,4.43
2023-11-23T17:04:13.269Z,4.45
2023-11-23T17:07:16.054Z,4.39
2023-11-23T17:10:21.911Z,4.37
2023-11-23T17:13:25.423Z,4.37
2023-11-23T17:16:30.559Z,4.30
2023-11-23T17:19:39.644Z,4.29
2023-11-23T17:22:44.845Z,4.31
2023-11-23T17:25:49.677Z,4.30
2023-11-23T17:28:55.757Z,4.30
2023-11-23T17:31:59.333Z,4.23
2023-11-23T17:35:03.940Z,4.20
2023-11-23T17:38:09.064Z,4.21
2023-11-23T17:41:15.101Z,4.21
2023-11-23T17:44:19.262Z,4.07
2023-11-23T17:47:27.243Z,4.10
2023-11-23T17:50:31.114Z,4.11
2023-11-23T17:53:38.658Z,4.00
2023-11-23T17:56:42.645Z,4.00
2023-11-23T17:59:49.862Z,3.85
2023-11-23T18:02:54.603Z,3.87
2023-11-23T18:05:59.578Z,3.95
2023-11-23T18:09:06.846Z,3.83
2023-11-23T18:12:11.272Z,3.78
2023-11-23T18:15:15.818Z,3.74
2023-11-23T18:18:24.066Z,3.79
2023-11-23T18:21:29.101Z,3.72
2023-11-23T18:24:32.712Z,3.74
2023-11-23T18:27:35.813Z,3.70
2023-11-23T18:30:39.772Z,3.70
2023-11-23T18:33:45.067Z,3.69
2023-11-23T18:36:48.400Z,3.66
2023-11-23T18:39:52.024Z,3.61
2023-11-23T18:42:55.281Z,3.61
2023-11-23T18:45:58.811Z,3.65
2023-11-23T18:49:04.042Z,3.57
2023-11-23T18:52:10.200Z,3.58
2023-11-23T18:55:20.031Z,3.55
2023-11-23T18:58:22.682Z,3.52
2023-11-23T19:01:26.052Z,3.49
2023-11-23T19:04:28.963Z,3.43
2023-11-23T19:07:38.043Z,3.45
2023-11-23T19:10:43.252Z,3.43
2023-11-23T19:13:47.661Z,3.48
2023-11-23T19:16:51.060Z,3.40
2023-11-23T19:19:57.020Z,3.39
2023-11-23T19:23:03.677Z,3.41
2023-11-23T19:26:08.142Z,3.33
2023-11-23T19:29:12.545Z,3.30
2023-11-23T19:32:27.426Z,3.23
2023-11-23T19:35:31.569Z,3.28
2023-11-23T19:38:35.998Z,3.30
2023-11-23T19:41:43.158Z,3.29
2023-11-23T19:44:51.651Z,3.30
2023-11-23T19:47:56.056Z,3.32
2023-11-23T19:50:59.465Z,3.38
2023-11-23T19:54:07.825Z,3.40
2023-11-23T19:57:11.683Z,3.32
2023-11-23T20:00:16.514Z,3.31
2023-11-23T20:03:21.156Z,3.30
2023-11-23T20:06:27.519Z,3.28
2023-11-23T20:09:32.394Z,3.31
2023-11-23T20:12:35.947Z,3.28
2023-11-23T20:15:38.786Z,3.28
2023-11-23T20:18:45.139Z,3.29
2023-11-23T20:21:48.910Z,3.39
2023-11-23T20:24:52.535Z,3.32
2023-11-23T20:27:56.264Z,3.20
2023-11-23T20:31:01.962Z,3.16
2023-11-23T20:34:05.839Z,3.06
2023-11-23T20:37:10.261Z,3.05
2023-11-23T20:40:13.189Z,2.98
2023-11-23T20:43:16.638Z,3.03
2023-11-23T20:46:19.382Z,3.00
2023-11-23T20:49:22.957Z,2.98
2023-11-23T20:52:27.937Z,3.00
2023-11-23T20:55:32.621Z,3.00
2023-11-23T20:58:36.079Z,2.98
2023-11-23T21:01:39.931Z,3.05
2023-11-23T21:04:46.098Z,2.86
2023-11-23T21:07:49.588Z,2.93
2023-11-23T21:10:53.988Z,3.00
2023-11-23T21:13:57.728Z,3.00
2023-11-23T21:17:01.844Z,3.01
2023-11-23T21:20:11.202Z,3.03
2023-11-23T21:23:14.492Z,3.00
2023-11-23T21:26:17.264Z,3.04
2023-11-23T21:29:20.144Z,3.05
2023-11-23T21:32:25.448Z,3.02
2023-11-23T21:35:33.665Z,2.97
2023-11-23T21:38:38.586Z,2.98
2023-11-23T21:41:41.267Z,2.94
2023-11-23T21:44:44.114Z,2.94
2023-11-23T21:47:48.657Z,3.02
2023-11-23T21:50:54.651Z,3.16
2023-11-23T21:53:58.194Z,3.23
2023-11-23T21:57:00.790Z,3.23
2023-11-23T22:00:04.379Z,3.30
2023-11-23T22:03:06.572Z,3.27
2023-11-23T22:06:10.377Z,3.27
2023-11-23T22:09:12.581Z,3.32
2023-11-23T22:12:15.082Z,3.42
2023-11-23T22:15:17.946Z,3.55
2023-11-23T22:18:21.131Z,3.48
2023-11-23T22:21:25.845Z,3.62
2023-11-23T22:24:28.804Z,3.57
2023-11-23T22:27:32.731Z,3.48
2023-11-23T22:30:39.090Z,3.39
2023-11-23T22:33:43.116Z,3.33
2023-11-23T22:36:46.694Z,3.41
2023-11-23T22:39:49.489Z,3.44
2023-11-23T22:42:52.411Z,3.38
2023-11-23T22:45:54.969Z,3.38
2023-11-23T22:48:57.220Z,3.38
2023-11-23T22:52:01.857Z,3.38
2023-11-23T22:55:08.491Z,3.28
2023-11-23T22:58:10.699Z,3.31
2023-11-23T23:01:13.227Z,3.34
2023-11-23T23:04:15.571Z,3.34
2023-11-23T23:07:21.868Z,3.30
2023-11-23T23:10:29.081Z,3.23
2023-11-23T23:13:33.914Z,3.22
2023-11-23T23:16:36.819Z,3.16
2023-11-23T23:19:39.000Z,3.21
2023-11-23T23:22:41.547Z,3.18
2023-11-23T23:25:45.837Z,3.18
2023-11-23T23:28:48.768Z,3.15
2023-11-23T23:31:51.758Z,3.17
2023-11-23T23:34:54.793Z,3.17
2023-11-23T23:37:57.392Z,3.12
2023-11-23T23:41:00.009Z,3.08
2023-11-23T23:44:05.640Z,3.06
2023-11-23T23:47:09.270Z,2.96
2023-11-23T23:50:13.059Z,3.01
2023-11-23T23:53:15.688Z,2.85
2023-11-23T23:56:18.495Z,2.82
2023-11-23T23:59:20.856Z,2.75
